sensor_id;sensor_type;location;lat;lon;timestamp;P1;durP1;ratioP1;P2;durP2;ratioP2
18376;SDS011;9315;52.624;13.544;2023-07-29T00:00:38;9.50;;;6.28;;
18376;SDS011;9315;52.624;13.544;2023-07-29T00:03:14;9.63;;;3.83;;
18376;SDS011;9315;52.624;13.544;2023-07-29T00:05:47;8.52;;;5.13;;
18376;SDS011;9315;52.624;13.544;2023-07-29T00:08:15;6.50;;;4.45;;
18376;SDS011;9315;52.624;13.544;2023-07-29T00:10:43;7.50;;;3.73;;
18376;SDS011;9315;52.624;13.544;2023-07-29T00:13:10;5.97;;;3.33;;
18376;SDS011;9315;52.624;13.544;2023-07-29T00:15:40;5.60;;;3.67;;
18376;SDS011;9315;52.624;13.544;2023-07-29T00:18:08;8.40;;;3.93;;
18376;SDS011;9315;52.624;13.544;2023-07-29T00:20:36;6.97;;;5.13;;
18376;SDS011;9315;52.624;13.544;2023-07-29T00:23:09;12.77;;;6.80;;
18376;SDS011;9315;52.624;13.544;2023-07-29T00:25:39;7.33;;;5.60;;
18376;SDS011;9315;52.624;13.544;2023-07-29T00:28:11;8.97;;;6.23;;
18376;SDS011;9315;52.624;13.544;2023-07-29T00:30:39;14.63;;;6.93;;
18376;SDS011;9315;52.624;13.544;2023-07-29T00:33:09;9.17;;;6.97;;
18376;SDS011;9315;52.624;13.544;2023-07-29T00:35:40;7.30;;;4.13;;
18376;SDS011;9315;52.624;13.544;2023-07-29T00:38:08;17.43;;;9.47;;
18376;SDS011;9315;52.624;13.544;2023-07-29T00:40:38;18.93;;;10.83;;
18376;SDS011;9315;52.624;13.544;2023-07-29T00:43:06;13.53;;;6.97;;
18376;SDS011;9315;52.624;13.544;2023-07-29T00:45:33;14.87;;;9.00;;
18376;SDS011;9315;52.624;13.544;2023-07-29T00:48:02;13.10;;;8.80;;
18376;SDS011;9315;52.624;13.544;2023-07-29T00:50:31;14.20;;;9.27;;
18376;SDS011;9315;52.624;13.544;2023-07-29T00:52:59;8.52;;;5.57;;
18376;SDS011;9315;52.624;13.544;2023-07-29T00:55:27;9.87;;;5.17;;
18376;SDS011;9315;52.624;13.544;2023-07-29T00:57:55;9.33;;;4.67;;
18376;SDS011;9315;52.624;13.544;2023-07-29T01:00:23;9.23;;;4.70;;
18376;SDS011;9315;52.624;13.544;2023-07-29T01:02:52;7.17;;;5.50;;
18376;SDS011;9315;52.624;13.544;2023-07-29T01:05:26;7.28;;;4.95;;
18376;SDS011;9315;52.624;13.544;2023-07-29T01:08:09;8.13;;;5.43;;
18376;SDS011;9315;52.624;13.544;2023-07-29T01:14:21;6.40;;;4.97;;
18376;SDS011;9315;52.624;13.544;2023-07-29T01:17:36;16.07;;;5.47;;
18376;SDS011;9315;52.624;13.544;2023-07-29T01:20:15;12.60;;;4.43;;
18376;SDS011;9315;52.624;13.544;2023-07-29T01:22:48;7.93;;;5.77;;
18376;SDS011;9315;52.624;13.544;2023-07-29T01:25:16;19.33;;;6.43;;
18376;SDS011;9315;52.624;13.544;2023-07-29T01:27:46;15.90;;;6.20;;
18376;SDS011;9315;52.624;13.544;2023-07-29T01:30:18;9.80;;;5.87;;
18376;SDS011;9315;52.624;13.544;2023-07-29T01:33:11;49.90;;;8.20;;
18376;SDS011;9315;52.624;13.544;2023-07-29T01:35:51;74.63;;;6.77;;
18376;SDS011;9315;52.624;13.544;2023-07-29T01:38:38;36.27;;;6.20;;
18376;SDS011;9315;52.624;13.544;2023-07-29T01:41:08;126.53;;;9.43;;
18376;SDS011;9315;52.624;13.544;2023-07-29T01:43:36;81.83;;;10.47;;
18376;SDS011;9315;52.624;13.544;2023-07-29T01:46:10;12.07;;;7.73;;
18376;SDS011;9315;52.624;13.544;2023-07-29T01:48:43;24.37;;;7.00;;
18376;SDS011;9315;52.624;13.544;2023-07-29T01:51:17;55.17;;;9.77;;
18376;SDS011;9315;52.624;13.544;2023-07-29T01:53:44;21.73;;;10.83;;
18376;SDS011;9315;52.624;13.544;2023-07-29T01:56:12;30.97;;;10.50;;
18376;SDS011;9315;52.624;13.544;2023-07-29T01:58:39;38.20;;;8.33;;
18376;SDS011;9315;52.624;13.544;2023-07-29T02:01:06;18.70;;;7.97;;
18376;SDS011;9315;52.624;13.544;2023-07-29T02:03:34;56.87;;;8.63;;
18376;SDS011;9315;52.624;13.544;2023-07-29T02:06:01;77.03;;;7.93;;
18376;SDS011;9315;52.624;13.544;2023-07-29T02:08:29;61.13;;;7.00;;
18376;SDS011;9315;52.624;13.544;2023-07-29T02:10:56;8.43;;;5.70;;
18376;SDS011;9315;52.624;13.544;2023-07-29T02:13:24;7.03;;;5.10;;
18376;SDS011;9315;52.624;13.544;2023-07-29T02:15:51;14.77;;;6.70;;
18376;SDS011;9315;52.624;13.544;2023-07-29T02:18:18;57.00;;;6.63;;
18376;SDS011;9315;52.624;13.544;2023-07-29T02:20:46;53.17;;;8.20;;
18376;SDS011;9315;52.624;13.544;2023-07-29T02:23:15;71.20;;;9.47;;
18376;SDS011;9315;52.624;13.544;2023-07-29T02:25:43;41.50;;;9.20;;
18376;SDS011;9315;52.624;13.544;2023-07-29T02:28:11;23.67;;;9.13;;
18376;SDS011;9315;52.624;13.544;2023-07-29T02:30:40;12.60;;;7.37;;
18376;SDS011;9315;52.624;13.544;2023-07-29T02:33:10;14.27;;;7.40;;
18376;SDS011;9315;52.624;13.544;2023-07-29T02:35:38;12.47;;;7.43;;
18376;SDS011;9315;52.624;13.544;2023-07-29T02:38:05;8.47;;;6.00;;
18376;SDS011;9315;52.624;13.544;2023-07-29T02:40:32;9.07;;;6.87;;
18376;SDS011;9315;52.624;13.544;2023-07-29T02:42:59;14.03;;;7.30;;
18376;SDS011;9315;52.624;13.544;2023-07-29T02:45:27;9.07;;;6.63;;
18376;SDS011;9315;52.624;13.544;2023-07-29T02:47:55;12.43;;;6.97;;
18376;SDS011;9315;52.624;13.544;2023-07-29T02:50:22;10.57;;;6.93;;
18376;SDS011;9315;52.624;13.544;2023-07-29T02:52:49;11.17;;;6.20;;
18376;SDS011;9315;52.624;13.544;2023-07-29T02:55:18;7.73;;;5.97;;
18376;SDS011;9315;52.624;13.544;2023-07-29T02:57:45;7.50;;;4.67;;
18376;SDS011;9315;52.624;13.544;2023-07-29T03:00:12;5.90;;;5.30;;
18376;SDS011;9315;52.624;13.544;2023-07-29T03:02:41;6.33;;;4.97;;
18376;SDS011;9315;52.624;13.544;2023-07-29T03:05:09;9.07;;;6.00;;
18376;SDS011;9315;52.624;13.544;2023-07-29T03:07:36;8.73;;;5.17;;
18376;SDS011;9315;52.624;13.544;2023-07-29T03:10:03;8.43;;;5.97;;
18376;SDS011;9315;52.624;13.544;2023-07-29T03:12:32;9.07;;;4.63;;
18376;SDS011;9315;52.624;13.544;2023-07-29T03:14:59;9.67;;;4.93;;
18376;SDS011;9315;52.624;13.544;2023-07-29T03:17:27;6.20;;;5.30;;
18376;SDS011;9315;52.624;13.544;2023-07-29T03:19:54;10.60;;;5.23;;
18376;SDS011;9315;52.624;13.544;2023-07-29T03:22:21;8.83;;;5.13;;
18376;SDS011;9315;52.624;13.544;2023-07-29T03:24:48;46.23;;;6.87;;
18376;SDS011;9315;52.624;13.544;2023-07-29T03:27:16;37.67;;;6.30;;
18376;SDS011;9315;52.624;13.544;2023-07-29T03:29:43;10.87;;;6.97;;
18376;SDS011;9315;52.624;13.544;2023-07-29T03:32:10;12.30;;;6.50;;
18376;SDS011;9315;52.624;13.544;2023-07-29T03:34:38;9.37;;;5.57;;
18376;SDS011;9315;52.624;13.544;2023-07-29T03:37:06;7.47;;;5.67;;
18376;SDS011;9315;52.624;13.544;2023-07-29T03:39:33;9.70;;;5.47;;
18376;SDS011;9315;52.624;13.544;2023-07-29T03:42:00;7.77;;;5.23;;
18376;SDS011;9315;52.624;13.544;2023-07-29T03:44:28;7.67;;;5.60;;
18376;SDS011;9315;52.624;13.544;2023-07-29T03:46:55;7.90;;;5.27;;
18376;SDS011;9315;52.624;13.544;2023-07-29T03:49:22;8.97;;;4.00;;
18376;SDS011;9315;52.624;13.544;2023-07-29T03:51:49;6.07;;;4.03;;
18376;SDS011;9315;52.624;13.544;2023-07-29T03:54:16;6.40;;;4.40;;
18376;SDS011;9315;52.624;13.544;2023-07-29T03:56:43;4.23;;;3.30;;
18376;SDS011;9315;52.624;13.544;2023-07-29T03:59:10;7.10;;;4.10;;
18376;SDS011;9315;52.624;13.544;2023-07-29T04:01:38;19.07;;;4.67;;
18376;SDS011;9315;52.624;13.544;2023-07-29T04:04:05;5.10;;;4.57;;
18376;SDS011;9315;52.624;13.544;2023-07-29T04:06:33;5.40;;;4.77;;
18376;SDS011;9315;52.624;13.544;2023-07-29T04:09:00;8.17;;;4.67;;
18376;SDS011;9315;52.624;13.544;2023-07-29T04:11:28;6.47;;;4.83;;
18376;SDS011;9315;52.624;13.544;2023-07-29T04:13:55;7.63;;;5.87;;
18376;SDS011;9315;52.624;13.544;2023-07-29T04:16:22;6.53;;;4.57;;
18376;SDS011;9315;52.624;13.544;2023-07-29T04:18:49;5.80;;;3.97;;
18376;SDS011;9315;52.624;13.544;2023-07-29T04:21:16;4.63;;;3.73;;
18376;SDS011;9315;52.624;13.544;2023-07-29T04:23:43;9.97;;;6.13;;
18376;SDS011;9315;52.624;13.544;2023-07-29T04:26:10;9.47;;;5.97;;
18376;SDS011;9315;52.624;13.544;2023-07-29T04:28:37;19.30;;;6.87;;
18376;SDS011;9315;52.624;13.544;2023-07-29T04:31:05;8.97;;;4.77;;
18376;SDS011;9315;52.624;13.544;2023-07-29T04:33:32;9.27;;;4.50;;
18376;SDS011;9315;52.624;13.544;2023-07-29T04:36:02;9.70;;;6.57;;
18376;SDS011;9315;52.624;13.544;2023-07-29T04:38:31;13.67;;;7.53;;
18376;SDS011;9315;52.624;13.544;2023-07-29T04:40:59;8.27;;;6.83;;
18376;SDS011;9315;52.624;13.544;2023-07-29T04:43:29;8.23;;;6.13;;
18376;SDS011;9315;52.624;13.544;2023-07-29T04:46:01;9.90;;;6.50;;
18376;SDS011;9315;52.624;13.544;2023-07-29T04:48:28;9.20;;;6.10;;
18376;SDS011;9315;52.624;13.544;2023-07-29T04:50:57;7.70;;;5.80;;
18376;SDS011;9315;52.624;13.544;2023-07-29T04:53:24;10.27;;;5.90;;
18376;SDS011;9315;52.624;13.544;2023-07-29T04:55:52;7.97;;;6.37;;
18376;SDS011;9315;52.624;13.544;2023-07-29T04:58:19;7.07;;;6.37;;
18376;SDS011;9315;52.624;13.544;2023-07-29T05:00:46;5.33;;;4.43;;
18376;SDS011;9315;52.624;13.544;2023-07-29T05:03:14;6.07;;;5.53;;
18376;SDS011;9315;52.624;13.544;2023-07-29T05:05:41;6.50;;;4.83;;
18376;SDS011;9315;52.624;13.544;2023-07-29T05:08:08;7.83;;;6.23;;
18376;SDS011;9315;52.624;13.544;2023-07-29T05:10:35;7.00;;;5.40;;
18376;SDS011;9315;52.624;13.544;2023-07-29T05:13:03;8.50;;;6.43;;
18376;SDS011;9315;52.624;13.544;2023-07-29T05:15:30;4.97;;;4.47;;
18376;SDS011;9315;52.624;13.544;2023-07-29T05:17:57;6.07;;;4.70;;
18376;SDS011;9315;52.624;13.544;2023-07-29T05:20:24;6.60;;;5.63;;
18376;SDS011;9315;52.624;13.544;2023-07-29T05:22:52;9.68;;;6.70;;
18376;SDS011;9315;52.624;13.544;2023-07-29T05:25:19;7.10;;;4.80;;
18376;SDS011;9315;52.624;13.544;2023-07-29T05:27:46;10.27;;;5.67;;
18376;SDS011;9315;52.624;13.544;2023-07-29T05:30:13;9.32;;;7.05;;
18376;SDS011;9315;52.624;13.544;2023-07-29T05:32:41;8.00;;;6.90;;
18376;SDS011;9315;52.624;13.544;2023-07-29T05:35:08;9.07;;;6.40;;
18376;SDS011;9315;52.624;13.544;2023-07-29T05:37:39;7.13;;;6.43;;
18376;SDS011;9315;52.624;13.544;2023-07-29T05:40:07;8.57;;;7.53;;
18376;SDS011;9315;52.624;13.544;2023-07-29T05:42:35;7.90;;;5.97;;
18376;SDS011;9315;52.624;13.544;2023-07-29T05:45:02;7.53;;;6.72;;
18376;SDS011;9315;52.624;13.544;2023-07-29T05:47:29;8.70;;;6.88;;
18376;SDS011;9315;52.624;13.544;2023-07-29T05:49:57;8.13;;;7.30;;
18376;SDS011;9315;52.624;13.544;2023-07-29T05:52:27;10.05;;;7.15;;
18376;SDS011;9315;52.624;13.544;2023-07-29T05:54:57;9.18;;;7.05;;
18376;SDS011;9315;52.624;13.544;2023-07-29T05:57:27;8.27;;;7.40;;
18376;SDS011;9315;52.624;13.544;2023-07-29T05:59:54;11.88;;;7.68;;
18376;SDS011;9315;52.624;13.544;2023-07-29T06:02:22;9.35;;;7.45;;
18376;SDS011;9315;52.624;13.544;2023-07-29T06:04:49;10.10;;;6.75;;
18376;SDS011;9315;52.624;13.544;2023-07-29T06:07:17;9.55;;;7.35;;
18376;SDS011;9315;52.624;13.544;2023-07-29T06:09:44;16.05;;;7.20;;
18376;SDS011;9315;52.624;13.544;2023-07-29T06:12:12;9.98;;;7.13;;
18376;SDS011;9315;52.624;13.544;2023-07-29T06:14:40;7.70;;;6.70;;
18376;SDS011;9315;52.624;13.544;2023-07-29T06:17:07;8.02;;;7.22;;
18376;SDS011;9315;52.624;13.544;2023-07-29T06:19:37;9.02;;;7.45;;
18376;SDS011;9315;52.624;13.544;2023-07-29T06:22:05;9.07;;;6.90;;
18376;SDS011;9315;52.624;13.544;2023-07-29T06:24:32;10.07;;;6.63;;
18376;SDS011;9315;52.624;13.544;2023-07-29T06:27:00;8.63;;;6.38;;
18376;SDS011;9315;52.624;13.544;2023-07-29T06:29:28;7.93;;;6.90;;
18376;SDS011;9315;52.624;13.544;2023-07-29T06:31:55;7.28;;;6.57;;
18376;SDS011;9315;52.624;13.544;2023-07-29T06:34:22;9.45;;;7.25;;
18376;SDS011;9315;52.624;13.544;2023-07-29T06:36:52;8.95;;;7.13;;
18376;SDS011;9315;52.624;13.544;2023-07-29T06:39:22;10.48;;;6.95;;
18376;SDS011;9315;52.624;13.544;2023-07-29T06:41:49;10.48;;;6.20;;
18376;SDS011;9315;52.624;13.544;2023-07-29T06:44:16;7.07;;;6.35;;
18376;SDS011;9315;52.624;13.544;2023-07-29T06:46:45;6.65;;;5.70;;
18376;SDS011;9315;52.624;13.544;2023-07-29T06:49:13;7.60;;;5.55;;
18376;SDS011;9315;52.624;13.544;2023-07-29T06:51:40;7.70;;;6.00;;
18376;SDS011;9315;52.624;13.544;2023-07-29T06:54:09;10.18;;;5.90;;
18376;SDS011;9315;52.624;13.544;2023-07-29T06:56:40;10.63;;;5.68;;
18376;SDS011;9315;52.624;13.544;2023-07-29T06:59:10;8.75;;;5.53;;
18376;SDS011;9315;52.624;13.544;2023-07-29T07:01:50;6.72;;;5.57;;
18376;SDS011;9315;52.624;13.544;2023-07-29T07:04:18;5.97;;;5.40;;
18376;SDS011;9315;52.624;13.544;2023-07-29T07:06:45;7.30;;;5.65;;
18376;SDS011;9315;52.624;13.544;2023-07-29T07:09:12;7.30;;;5.13;;
18376;SDS011;9315;52.624;13.544;2023-07-29T07:11:40;8.93;;;5.78;;
18376;SDS011;9315;52.624;13.544;2023-07-29T07:14:07;6.15;;;4.68;;
18376;SDS011;9315;52.624;13.544;2023-07-29T07:16:34;5.90;;;4.85;;
18376;SDS011;9315;52.624;13.544;2023-07-29T07:19:06;7.95;;;5.10;;
18376;SDS011;9315;52.624;13.544;2023-07-29T07:21:33;7.30;;;4.80;;
18376;SDS011;9315;52.624;13.544;2023-07-29T07:24:01;6.50;;;4.40;;
18376;SDS011;9315;52.624;13.544;2023-07-29T07:26:28;8.13;;;4.07;;
18376;SDS011;9315;52.624;13.544;2023-07-29T07:28:55;5.88;;;4.50;;
18376;SDS011;9315;52.624;13.544;2023-07-29T07:31:23;4.78;;;4.30;;
18376;SDS011;9315;52.624;13.544;2023-07-29T07:33:51;5.95;;;4.43;;
18376;SDS011;9315;52.624;13.544;2023-07-29T07:36:19;4.63;;;3.80;;
18376;SDS011;9315;52.624;13.544;2023-07-29T07:38:46;4.40;;;3.65;;
18376;SDS011;9315;52.624;13.544;2023-07-29T07:41:13;8.68;;;4.20;;
18376;SDS011;9315;52.624;13.544;2023-07-29T07:43:44;6.43;;;4.40;;
18376;SDS011;9315;52.624;13.544;2023-07-29T07:46:12;7.50;;;4.20;;
18376;SDS011;9315;52.624;13.544;2023-07-29T07:48:39;5.50;;;4.25;;
18376;SDS011;9315;52.624;13.544;2023-07-29T07:51:10;7.28;;;4.80;;
18376;SDS011;9315;52.624;13.544;2023-07-29T07:53:39;6.60;;;4.70;;
18376;SDS011;9315;52.624;13.544;2023-07-29T07:56:09;5.25;;;4.57;;
18376;SDS011;9315;52.624;13.544;2023-07-29T07:58:36;7.95;;;5.68;;
18376;SDS011;9315;52.624;13.544;2023-07-29T08:01:08;6.63;;;5.60;;
18376;SDS011;9315;52.624;13.544;2023-07-29T08:03:36;7.55;;;5.50;;
18376;SDS011;9315;52.624;13.544;2023-07-29T08:06:06;6.28;;;4.90;;
18376;SDS011;9315;52.624;13.544;2023-07-29T08:08:36;7.00;;;4.45;;
18376;SDS011;9315;52.624;13.544;2023-07-29T08:11:07;5.45;;;4.50;;
18376;SDS011;9315;52.624;13.544;2023-07-29T08:13:37;8.43;;;5.10;;
18376;SDS011;9315;52.624;13.544;2023-07-29T08:16:04;7.55;;;4.93;;
18376;SDS011;9315;52.624;13.544;2023-07-29T08:18:33;6.10;;;5.50;;
18376;SDS011;9315;52.624;13.544;2023-07-29T08:21:01;5.00;;;4.50;;
18376;SDS011;9315;52.624;13.544;2023-07-29T08:23:30;5.60;;;4.53;;
18376;SDS011;9315;52.624;13.544;2023-07-29T08:26:02;5.30;;;4.80;;
18376;SDS011;9315;52.624;13.544;2023-07-29T08:28:37;5.35;;;4.85;;
18376;SDS011;9315;52.624;13.544;2023-07-29T08:31:06;5.30;;;4.60;;
18376;SDS011;9315;52.624;13.544;2023-07-29T08:33:34;6.00;;;5.40;;
18376;SDS011;9315;52.624;13.544;2023-07-29T08:36:02;5.97;;;4.95;;
18376;SDS011;9315;52.624;13.544;2023-07-29T08:38:38;7.03;;;4.22;;
18376;SDS011;9315;52.624;13.544;2023-07-29T08:44:02;7.10;;;4.57;;
18376;SDS011;9315;52.624;13.544;2023-07-29T08:46:44;5.55;;;5.00;;
18376;SDS011;9315;52.624;13.544;2023-07-29T08:49:12;4.55;;;4.20;;
18376;SDS011;9315;52.624;13.544;2023-07-29T08:51:44;4.30;;;3.90;;
18376;SDS011;9315;52.624;13.544;2023-07-29T08:54:15;6.82;;;4.57;;
18376;SDS011;9315;52.624;13.544;2023-07-29T08:56:46;4.22;;;3.83;;
18376;SDS011;9315;52.624;13.544;2023-07-29T08:59:17;7.85;;;3.67;;
18376;SDS011;9315;52.624;13.544;2023-07-29T09:01:45;4.43;;;4.03;;
18376;SDS011;9315;52.624;13.544;2023-07-29T09:04:24;3.90;;;3.50;;
18376;SDS011;9315;52.624;13.544;2023-07-29T09:06:51;4.55;;;3.55;;
18376;SDS011;9315;52.624;13.544;2023-07-29T09:09:22;4.45;;;4.05;;
18376;SDS011;9315;52.624;13.544;2023-07-29T09:11:49;4.15;;;3.40;;
18376;SDS011;9315;52.624;13.544;2023-07-29T09:14:17;4.18;;;3.65;;
18376;SDS011;9315;52.624;13.544;2023-07-29T09:16:45;3.45;;;3.15;;
18376;SDS011;9315;52.624;13.544;2023-07-29T09:19:15;4.40;;;3.42;;
18376;SDS011;9315;52.624;13.544;2023-07-29T09:21:52;4.72;;;3.78;;
18376;SDS011;9315;52.624;13.544;2023-07-29T09:24:20;3.63;;;3.30;;
18376;SDS011;9315;52.624;13.544;2023-07-29T09:27:05;6.65;;;3.00;;
18376;SDS011;9315;52.624;13.544;2023-07-29T09:29:37;3.50;;;3.20;;
18376;SDS011;9315;52.624;13.544;2023-07-29T09:32:20;6.82;;;3.30;;
18376;SDS011;9315;52.624;13.544;2023-07-29T09:34:52;3.35;;;2.90;;
18376;SDS011;9315;52.624;13.544;2023-07-29T09:37:21;2.88;;;2.67;;
18376;SDS011;9315;52.624;13.544;2023-07-29T09:39:49;5.45;;;2.60;;
18376;SDS011;9315;52.624;13.544;2023-07-29T09:42:19;5.28;;;2.85;;
18376;SDS011;9315;52.624;13.544;2023-07-29T09:44:49;3.25;;;2.70;;
18376;SDS011;9315;52.624;13.544;2023-07-29T09:47:24;2.78;;;2.58;;
18376;SDS011;9315;52.624;13.544;2023-07-29T09:49:53;2.90;;;2.25;;
18376;SDS011;9315;52.624;13.544;2023-07-29T09:52:21;2.40;;;2.05;;
18376;SDS011;9315;52.624;13.544;2023-07-29T09:54:49;2.78;;;2.58;;
18376;SDS011;9315;52.624;13.544;2023-07-29T09:57:18;3.85;;;2.15;;
18376;SDS011;9315;52.624;13.544;2023-07-29T09:59:53;2.67;;;2.47;;
18376;SDS011;9315;52.624;13.544;2023-07-29T10:02:22;2.45;;;2.22;;
18376;SDS011;9315;52.624;13.544;2023-07-29T10:04:58;2.78;;;2.58;;
18376;SDS011;9315;52.624;13.544;2023-07-29T10:07:45;2.20;;;2.10;;
18376;SDS011;9315;52.624;13.544;2023-07-29T10:10:17;4.45;;;2.42;;
18376;SDS011;9315;52.624;13.544;2023-07-29T10:12:46;2.97;;;2.67;;
18376;SDS011;9315;52.624;13.544;2023-07-29T10:15:20;2.78;;;2.30;;
18376;SDS011;9315;52.624;13.544;2023-07-29T10:17:52;3.13;;;2.10;;
18376;SDS011;9315;52.624;13.544;2023-07-29T10:20:20;3.75;;;2.28;;
18376;SDS011;9315;52.624;13.544;2023-07-29T10:22:47;3.55;;;2.30;;
18376;SDS011;9315;52.624;13.544;2023-07-29T10:25:16;4.10;;;2.10;;
18376;SDS011;9315;52.624;13.544;2023-07-29T10:28:07;4.13;;;2.15;;
18376;SDS011;9315;52.624;13.544;2023-07-29T10:30:37;12.52;;;4.60;;
18376;SDS011;9315;52.624;13.544;2023-07-29T10:33:05;73.82;;;21.23;;
18376;SDS011;9315;52.624;13.544;2023-07-29T10:35:33;3.08;;;2.40;;
18376;SDS011;9315;52.624;13.544;2023-07-29T10:38:02;6.63;;;2.10;;
18376;SDS011;9315;52.624;13.544;2023-07-29T10:40:47;3.53;;;2.20;;
18376;SDS011;9315;52.624;13.544;2023-07-29T10:49:01;2.20;;;1.50;;
18376;SDS011;9315;52.624;13.544;2023-07-29T10:51:30;2.00;;;1.80;;
18376;SDS011;9315;52.624;13.544;2023-07-29T10:54:04;5.68;;;2.08;;
18376;SDS011;9315;52.624;13.544;2023-07-29T10:56:40;2.22;;;1.60;;
18376;SDS011;9315;52.624;13.544;2023-07-29T11:01:51;2.35;;;1.85;;
18376;SDS011;9315;52.624;13.544;2023-07-29T11:04:25;2.47;;;1.50;;
18376;SDS011;9315;52.624;13.544;2023-07-29T11:15:19;2.25;;;1.50;;
18376;SDS011;9315;52.624;13.544;2023-07-29T11:17:59;3.28;;;1.60;;
18376;SDS011;9315;52.624;13.544;2023-07-29T11:20:29;2.67;;;1.38;;
18376;SDS011;9315;52.624;13.544;2023-07-29T11:23:00;3.88;;;1.55;;
18376;SDS011;9315;52.624;13.544;2023-07-29T11:25:30;1.92;;;1.35;;
18376;SDS011;9315;52.624;13.544;2023-07-29T11:28:02;2.65;;;1.10;;
18376;SDS011;9315;52.624;13.544;2023-07-29T11:30:38;4.47;;;1.10;;
18376;SDS011;9315;52.624;13.544;2023-07-29T11:33:06;3.22;;;1.02;;
18376;SDS011;9315;52.624;13.544;2023-07-29T11:35:33;23.70;;;2.97;;
18376;SDS011;9315;52.624;13.544;2023-07-29T11:38:03;16.90;;;2.15;;
18376;SDS011;9315;52.624;13.544;2023-07-29T11:40:40;7.38;;;1.60;;
18376;SDS011;9315;52.624;13.544;2023-07-29T11:45:58;9.23;;;1.85;;
18376;SDS011;9315;52.624;13.544;2023-07-29T11:49:52;3.88;;;1.23;;
18376;SDS011;9315;52.624;13.544;2023-07-29T11:52:37;3.53;;;1.30;;
18376;SDS011;9315;52.624;13.544;2023-07-29T11:55:54;2.10;;;0.80;;
18376;SDS011;9315;52.624;13.544;2023-07-29T11:59:17;4.47;;;1.08;;
18376;SDS011;9315;52.624;13.544;2023-07-29T12:01:56;5.20;;;1.10;;
18376;SDS011;9315;52.624;13.544;2023-07-29T12:05:20;3.22;;;1.05;;
18376;SDS011;9315;52.624;13.544;2023-07-29T12:07:57;1.52;;;0.90;;
18376;SDS011;9315;52.624;13.544;2023-07-29T12:10:33;2.85;;;1.08;;
18376;SDS011;9315;52.624;13.544;2023-07-29T12:13:10;2.33;;;0.85;;
18376;SDS011;9315;52.624;13.544;2023-07-29T12:19:30;1.35;;;0.80;;
18376;SDS011;9315;52.624;13.544;2023-07-29T12:22:04;5.78;;;1.17;;
18376;SDS011;9315;52.624;13.544;2023-07-29T12:24:39;1.58;;;0.70;;
18376;SDS011;9315;52.624;13.544;2023-07-29T12:27:12;2.72;;;0.80;;
18376;SDS011;9315;52.624;13.544;2023-07-29T12:29:43;0.70;;;0.68;;
18376;SDS011;9315;52.624;13.544;2023-07-29T12:32:13;2.92;;;1.13;;
18376;SDS011;9315;52.624;13.544;2023-07-29T12:34:48;3.08;;;0.93;;
18376;SDS011;9315;52.624;13.544;2023-07-29T12:37:32;0.85;;;0.77;;
18376;SDS011;9315;52.624;13.544;2023-07-29T12:39:59;1.85;;;0.93;;
18376;SDS011;9315;52.624;13.544;2023-07-29T12:42:29;1.05;;;0.90;;
18376;SDS011;9315;52.624;13.544;2023-07-29T12:45:02;2.72;;;1.08;;
18376;SDS011;9315;52.624;13.544;2023-07-29T12:47:31;2.03;;;1.17;;
18376;SDS011;9315;52.624;13.544;2023-07-29T12:49:58;2.78;;;0.93;;
18376;SDS011;9315;52.624;13.544;2023-07-29T12:52:25;2.03;;;1.10;;
18376;SDS011;9315;52.624;13.544;2023-07-29T12:54:53;1.92;;;1.40;;
18376;SDS011;9315;52.624;13.544;2023-07-29T12:57:20;1.50;;;0.98;;
18376;SDS011;9315;52.624;13.544;2023-07-29T12:59:47;1.23;;;0.95;;
18376;SDS011;9315;52.624;13.544;2023-07-29T13:02:15;1.23;;;0.93;;
18376;SDS011;9315;52.624;13.544;2023-07-29T13:04:42;1.98;;;0.85;;
18376;SDS011;9315;52.624;13.544;2023-07-29T13:07:09;1.83;;;0.88;;
18376;SDS011;9315;52.624;13.544;2023-07-29T13:09:46;1.40;;;0.90;;
18376;SDS011;9315;52.624;13.544;2023-07-29T13:12:13;0.90;;;0.90;;
18376;SDS011;9315;52.624;13.544;2023-07-29T13:14:48;1.85;;;1.05;;
18376;SDS011;9315;52.624;13.544;2023-07-29T13:17:26;0.77;;;0.77;;
18376;SDS011;9315;52.624;13.544;2023-07-29T13:19:54;1.00;;;0.88;;
18376;SDS011;9315;52.624;13.544;2023-07-29T13:22:21;0.95;;;0.85;;
18376;SDS011;9315;52.624;13.544;2023-07-29T13:24:51;1.10;;;1.00;;
18376;SDS011;9315;52.624;13.544;2023-07-29T13:27:18;2.40;;;1.05;;
18376;SDS011;9315;52.624;13.544;2023-07-29T13:29:45;1.15;;;1.05;;
18376;SDS011;9315;52.624;13.544;2023-07-29T13:32:13;3.88;;;1.17;;
18376;SDS011;9315;52.624;13.544;2023-07-29T13:34:41;2.17;;;1.30;;
18376;SDS011;9315;52.624;13.544;2023-07-29T13:37:14;2.75;;;1.40;;
18376;SDS011;9315;52.624;13.544;2023-07-29T13:39:41;2.40;;;1.70;;
18376;SDS011;9315;52.624;13.544;2023-07-29T13:42:18;2.17;;;1.48;;
18376;SDS011;9315;52.624;13.544;2023-07-29T13:44:49;1.75;;;1.60;;
18376;SDS011;9315;52.624;13.544;2023-07-29T13:47:16;1.63;;;1.48;;
18376;SDS011;9315;52.624;13.544;2023-07-29T13:49:46;1.42;;;1.30;;
18376;SDS011;9315;52.624;13.544;2023-07-29T13:52:16;3.00;;;1.48;;
18376;SDS011;9315;52.624;13.544;2023-07-29T13:54:44;2.50;;;1.38;;
18376;SDS011;9315;52.624;13.544;2023-07-29T13:57:11;1.77;;;1.40;;
18376;SDS011;9315;52.624;13.544;2023-07-29T13:59:41;1.80;;;1.27;;
18376;SDS011;9315;52.624;13.544;2023-07-29T14:02:12;2.65;;;1.25;;
18376;SDS011;9315;52.624;13.544;2023-07-29T14:04:40;2.83;;;1.40;;
18376;SDS011;9315;52.624;13.544;2023-07-29T14:07:08;1.70;;;1.10;;
18376;SDS011;9315;52.624;13.544;2023-07-29T14:09:44;2.03;;;1.30;;
18376;SDS011;9315;52.624;13.544;2023-07-29T14:12:15;2.10;;;1.80;;
18376;SDS011;9315;52.624;13.544;2023-07-29T14:14:50;2.60;;;1.35;;
18376;SDS011;9315;52.624;13.544;2023-07-29T14:17:55;1.67;;;1.42;;
18376;SDS011;9315;52.624;13.544;2023-07-29T14:21:05;2.28;;;1.00;;
18376;SDS011;9315;52.624;13.544;2023-07-29T14:23:35;2.33;;;1.10;;
18376;SDS011;9315;52.624;13.544;2023-07-29T14:26:06;0.82;;;0.77;;
18376;SDS011;9315;52.624;13.544;2023-07-29T14:28:41;1.30;;;0.70;;
18376;SDS011;9315;52.624;13.544;2023-07-29T14:31:09;0.85;;;0.80;;
18376;SDS011;9315;52.624;13.544;2023-07-29T14:33:54;4.28;;;0.60;;
18376;SDS011;9315;52.624;13.544;2023-07-29T14:36:36;3.90;;;0.45;;
18376;SDS011;9315;52.624;13.544;2023-07-29T14:39:04;0.30;;;0.30;;
18376;SDS011;9315;52.624;13.544;2023-07-29T14:41:43;0.75;;;0.63;;
18376;SDS011;9315;52.624;13.544;2023-07-29T14:44:13;0.75;;;0.50;;
18376;SDS011;9315;52.624;13.544;2023-07-29T14:47:15;0.75;;;0.50;;
18376;SDS011;9315;52.624;13.544;2023-07-29T14:49:46;1.45;;;0.45;;
18376;SDS011;9315;52.624;13.544;2023-07-29T14:52:17;0.82;;;0.70;;
18376;SDS011;9315;52.624;13.544;2023-07-29T14:54:44;0.45;;;0.45;;
18376;SDS011;9315;52.624;13.544;2023-07-29T14:58:01;0.88;;;0.52;;
18376;SDS011;9315;52.624;13.544;2023-07-29T15:00:34;0.50;;;0.50;;
18376;SDS011;9315;52.624;13.544;2023-07-29T15:03:11;0.65;;;0.60;;
18376;SDS011;9315;52.624;13.544;2023-07-29T15:06:05;2.10;;;0.65;;
18376;SDS011;9315;52.624;13.544;2023-07-29T15:09:18;2.35;;;0.80;;
18376;SDS011;9315;52.624;13.544;2023-07-29T15:11:52;0.68;;;0.68;;
18376;SDS011;9315;52.624;13.544;2023-07-29T15:14:24;4.70;;;0.85;;
18376;SDS011;9315;52.624;13.544;2023-07-29T15:16:52;0.80;;;0.60;;
18376;SDS011;9315;52.624;13.544;2023-07-29T15:19:43;0.60;;;0.50;;
18376;SDS011;9315;52.624;13.544;2023-07-29T15:22:14;1.35;;;0.60;;
18376;SDS011;9315;52.624;13.544;2023-07-29T15:24:42;2.50;;;0.75;;
18376;SDS011;9315;52.624;13.544;2023-07-29T15:27:13;0.65;;;0.57;;
18376;SDS011;9315;52.624;13.544;2023-07-29T15:29:42;2.42;;;0.75;;
18376;SDS011;9315;52.624;13.544;2023-07-29T15:32:13;0.73;;;0.63;;
18376;SDS011;9315;52.624;13.544;2023-07-29T15:34:41;1.85;;;0.60;;
18376;SDS011;9315;52.624;13.544;2023-07-29T15:37:17;0.80;;;0.75;;
18376;SDS011;9315;52.624;13.544;2023-07-29T15:39:54;0.88;;;0.70;;